createdAt,value
2019-02-12T00:01:06.686Z,13.60
2019-02-12T00:03:36.106Z,10.27
2019-02-12T00:06:05.450Z,14.43
2019-02-12T00:08:34.535Z,10.60
2019-02-12T00:11:03.734Z,16.70
2019-02-12T00:13:33.067Z,17.30
2019-02-12T00:16:02.333Z,15.77
2019-02-12T00:18:31.440Z,12.70
2019-02-12T00:21:08.768Z,12.47
2019-02-12T00:23:31.368Z,14.90
2019-02-12T00:26:00.531Z,12.00
2019-02-12T00:28:29.584Z,12.90
2019-02-12T00:30:58.688Z,13.87
2019-02-12T00:33:27.774Z,10.43
2019-02-12T00:35:56.874Z,17.63
2019-02-12T00:38:26.259Z,10.43
2019-02-12T00:40:55.360Z,16.93
2019-02-12T00:43:24.634Z,14.00
2019-02-12T00:45:53.809Z,12.00
2019-02-12T00:48:23.149Z,11.93
2019-02-12T00:50:52.459Z,14.97
2019-02-12T00:53:21.599Z,16.37
2019-02-12T00:55:50.825Z,13.27
2019-02-12T00:58:20.352Z,12.17
2019-02-12T01:00:49.530Z,16.77
2019-02-12T01:03:18.708Z,17.73
2019-02-12T01:05:47.831Z,15.10
2019-02-12T01:08:16.880Z,11.13
2019-02-12T01:10:46.085Z,19.90
2019-02-12T01:13:15.145Z,10.67
2019-02-12T01:15:44.485Z,11.93
2019-02-12T01:18:13.572Z,15.33
2019-02-12T01:20:42.947Z,15.53
2019-02-12T01:23:12.140Z,14.97
2019-02-12T01:25:41.293Z,11.70
2019-02-12T01:28:10.671Z,12.30
2019-02-12T01:30:39.757Z,13.43
2019-02-12T01:33:09.092Z,14.10
2019-02-12T01:35:38.235Z,13.47
2019-02-12T01:38:07.525Z,14.40
2019-02-12T01:40:38.085Z,10.83
2019-02-12T01:43:07.204Z,13.43
2019-02-12T01:45:36.315Z,16.87
2019-02-12T01:48:05.441Z,15.50
2019-02-12T01:50:34.759Z,11.63
2019-02-12T01:53:03.916Z,16.27
2019-02-12T01:55:33.029Z,14.33
2019-02-12T01:58:02.130Z,15.73
2019-02-12T02:00:31.436Z,14.70
2019-02-12T02:03:00.683Z,12.53
2019-02-12T02:05:29.847Z,15.87
2019-02-12T02:07:59.135Z,15.80
2019-02-12T02:10:28.403Z,14.83
2019-02-12T02:12:57.608Z,14.70
2019-02-12T02:15:26.734Z,15.83
2019-02-12T02:17:55.863Z,19.83
2019-02-12T02:20:25.224Z,22.13
2019-02-12T02:22:54.445Z,16.43
2019-02-12T02:25:23.613Z,11.23
2019-02-12T02:27:52.927Z,14.23
2019-02-12T02:30:22.127Z,11.27
2019-02-12T02:32:51.234Z,11.20
2019-02-12T02:35:20.478Z,16.83
2019-02-12T02:37:49.885Z,15.60
2019-02-12T02:40:19.076Z,17.33
2019-02-12T02:42:48.336Z,20.73
2019-02-12T02:45:17.485Z,14.17
2019-02-12T02:47:46.752Z,16.30
2019-02-12T02:50:15.821Z,18.40
2019-02-12T02:52:44.917Z,13.80
2019-02-12T02:55:14.332Z,17.47
2019-02-12T02:57:43.434Z,13.10
2019-02-12T03:00:12.775Z,20.53
2019-02-12T03:02:41.918Z,19.47
2019-02-12T03:05:11.466Z,14.30
2019-02-12T03:07:40.554Z,17.60
2019-02-12T03:10:10.060Z,13.70
2019-02-12T03:12:39.158Z,14.33
2019-02-12T03:15:10.322Z,17.27
2019-02-12T03:17:39.569Z,15.60
2019-02-12T03:20:10.356Z,16.87
2019-02-12T03:22:39.849Z,14.33
2019-02-12T03:25:09.707Z,15.70
2019-02-12T03:27:39.290Z,14.83
2019-02-12T03:30:09.569Z,16.27
2019-02-12T03:32:38.841Z,17.00
2019-02-12T03:35:08.705Z,16.83
2019-02-12T03:37:37.798Z,21.00
2019-02-12T03:40:08.626Z,20.70
2019-02-12T03:42:37.759Z,15.63
2019-02-12T03:45:07.487Z,19.80
2019-02-12T03:47:36.737Z,16.70
2019-02-12T03:50:06.922Z,16.20
2019-02-12T03:52:36.139Z,16.93
2019-02-12T03:55:05.784Z,22.73
2019-02-12T03:57:34.995Z,19.93
2019-02-12T04:00:04.247Z,20.20
2019-02-12T04:02:33.361Z,25.00
2019-02-12T04:05:02.470Z,18.63
2019-02-12T04:07:31.600Z,22.93
2019-02-12T04:10:00.784Z,15.80
2019-02-12T04:12:29.938Z,18.63
2019-02-12T04:14:59.291Z,24.17
2019-02-12T04:17:28.682Z,20.20
2019-02-12T04:19:57.839Z,31.10
2019-02-12T04:22:27.081Z,18.07
2019-02-12T04:24:56.152Z,21.00
2019-02-12T04:27:25.267Z,20.27
2019-02-12T04:29:54.328Z,18.60
2019-02-12T04:32:23.771Z,23.93
2019-02-12T04:34:52.832Z,19.63
2019-02-12T04:37:22.119Z,21.63
2019-02-12T04:39:51.309Z,23.80
2019-02-12T04:42:20.606Z,18.50
2019-02-12T04:44:49.722Z,21.87
2019-02-12T04:47:19.120Z,26.30
2019-02-12T04:49:48.344Z,17.83
2019-02-12T04:52:17.408Z,27.37
2019-02-12T04:54:46.665Z,23.10
2019-02-12T04:57:15.913Z,24.23
2019-02-12T04:59:45.138Z,27.97
2019-02-12T05:02:14.344Z,34.87
2019-02-12T05:04:43.552Z,28.00
2019-02-12T05:07:12.817Z,27.93
2019-02-12T05:09:44.999Z,20.40
2019-02-12T05:12:16.127Z,25.67
2019-02-12T05:14:45.450Z,25.60
2019-02-12T05:17:14.566Z,26.63
2019-02-12T05:19:43.838Z,28.53
2019-02-12T05:22:13.251Z,23.30
2019-02-12T05:24:42.452Z,24.70
2019-02-12T05:27:11.534Z,22.23
2019-02-12T05:29:42.043Z,29.63
2019-02-12T05:32:11.144Z,23.43
2019-02-12T05:34:40.361Z,25.30
2019-02-12T05:37:09.441Z,23.80
2019-02-12T05:39:38.549Z,23.73
2019-02-12T05:42:07.679Z,22.17
2019-02-12T05:44:37.169Z,29.23
2019-02-12T05:47:07.016Z,23.50
2019-02-12T05:49:36.326Z,26.17
2019-02-12T05:52:05.439Z,24.20
2019-02-12T05:54:34.807Z,24.80
2019-02-12T05:57:04.024Z,26.80
2019-02-12T05:59:33.444Z,27.67
2019-02-12T06:02:02.549Z,27.20
2019-02-12T06:04:31.707Z,21.20
2019-02-12T06:07:01.263Z,23.27
2019-02-12T06:09:30.555Z,29.77
2019-02-12T06:11:59.593Z,21.20
2019-02-12T06:14:28.679Z,24.50
2019-02-12T06:16:57.753Z,28.87
2019-02-12T06:19:27.058Z,25.50
2019-02-12T06:21:56.368Z,21.90
2019-02-12T06:24:25.460Z,25.90
2019-02-12T06:26:54.640Z,25.67
2019-02-12T06:29:23.918Z,25.17
2019-02-12T06:31:53.245Z,26.67
2019-02-12T06:34:22.325Z,24.70
2019-02-12T06:36:51.552Z,27.27
2019-02-12T06:39:20.669Z,27.30
2019-02-12T06:41:50.127Z,25.33
2019-02-12T06:44:19.389Z,26.00
2019-02-12T06:46:48.619Z,26.20
2019-02-12T06:49:17.710Z,26.30
2019-02-12T06:51:46.812Z,29.07
2019-02-12T06:54:16.328Z,29.10
2019-02-12T06:56:45.770Z,23.93
2019-02-12T06:59:15.086Z,22.73
2019-02-12T07:01:44.212Z,24.43
2019-02-12T07:04:19.405Z,18.80
2019-02-12T07:07:16.844Z,23.23
2019-02-12T07:09:55.738Z,26.70
2019-02-12T07:12:51.189Z,28.67
2019-02-12T07:15:39.827Z,27.27
2019-02-12T07:18:57.113Z,21.87
2019-02-12T07:21:55.404Z,21.20
2019-02-12T07:24:46.012Z,26.50
2019-02-12T07:28:08.627Z,32.63
2019-02-12T07:31:14.849Z,33.30
2019-02-12T07:34:16.586Z,23.20
2019-02-12T07:37:10.042Z,25.87
2019-02-12T07:40:11.063Z,23.60
2019-02-12T07:42:59.618Z,21.73
2019-02-12T07:46:01.573Z,22.70
2019-02-12T07:49:08.794Z,21.90
2019-02-12T07:51:56.419Z,23.40
2019-02-12T07:55:06.666Z,24.03
2019-02-12T07:58:25.333Z,27.83
2019-02-12T08:01:14.905Z,25.47
2019-02-12T08:04:08.988Z,28.10
2019-02-12T08:07:26.076Z,26.97
2019-02-12T08:10:31.403Z,22.00
2019-02-12T08:13:50.101Z,21.43
2019-02-12T08:17:05.375Z,23.90
2019-02-12T08:20:02.737Z,26.27
2019-02-12T08:22:57.347Z,19.83
2019-02-12T08:26:13.558Z,29.50
2019-02-12T08:29:11.552Z,19.97
2019-02-12T08:32:02.204Z,22.43
2019-02-12T08:35:07.325Z,20.80
2019-02-12T08:38:04.572Z,24.77
2019-02-12T08:41:05.169Z,24.37
2019-02-12T08:44:03.495Z,20.30
2019-02-12T08:46:58.874Z,18.90
2019-02-12T08:50:06.146Z,20.93
2019-02-12T08:53:01.056Z,24.87
2019-02-12T08:55:50.986Z,21.20
2019-02-12T08:58:56.687Z,17.60
2019-02-12T09:02:25.273Z,31.47
2019-02-12T09:05:50.581Z,21.27
2019-02-12T09:08:55.684Z,23.40
2019-02-12T09:12:07.804Z,16.23
2019-02-12T09:15:05.409Z,18.80
2019-02-12T09:17:54.252Z,24.00
2019-02-12T09:21:01.662Z,22.30
2019-02-12T09:24:12.028Z,20.03
2019-02-12T09:27:15.062Z,20.63
2019-02-12T09:30:22.393Z,17.60
2019-02-12T09:33:16.566Z,15.33
2019-02-12T09:36:30.683Z,17.97
2019-02-12T09:39:36.274Z,18.40
2019-02-12T09:42:37.330Z,16.47
2019-02-12T09:45:28.441Z,16.20
2019-02-12T09:48:31.736Z,15.07
2019-02-12T09:51:34.734Z,19.63
2019-02-12T09:54:42.350Z,23.10
2019-02-12T09:57:55.608Z,13.20
2019-02-12T10:01:10.015Z,18.20
2019-02-12T10:04:13.396Z,19.40
2019-02-12T10:07:06.551Z,18.93
2019-02-12T10:10:10.544Z,21.13
2019-02-12T10:12:47.461Z,15.37
2019-02-12T10:15:57.645Z,18.70
2019-02-12T10:19:12.663Z,15.23
2019-02-12T10:22:09.557Z,23.70
2019-02-12T10:24:53.102Z,18.13
2019-02-12T10:28:15.503Z,11.63
2019-02-12T10:31:08.723Z,13.60
2019-02-12T10:33:37.987Z,24.10
2019-02-12T10:36:07.278Z,17.10
2019-02-12T10:38:36.314Z,13.43
2019-02-12T10:41:05.458Z,17.50
2019-02-12T10:43:34.753Z,16.57
2019-02-12T10:46:04.072Z,17.20
2019-02-12T10:48:33.174Z,13.43
2019-02-12T10:51:02.624Z,20.47
2019-02-12T10:53:31.674Z,13.93
2019-02-12T10:56:00.776Z,15.03
2019-02-12T10:58:30.207Z,12.73
2019-02-12T11:00:59.433Z,10.80
2019-02-12T11:03:28.827Z,9.73
2019-02-12T11:05:57.890Z,10.50
2019-02-12T11:08:27.128Z,11.87
2019-02-12T11:10:56.654Z,11.40
2019-02-12T11:13:25.683Z,13.23
2019-02-12T11:15:54.833Z,10.40
2019-02-12T11:18:23.907Z,11.53
2019-02-12T11:20:53.136Z,10.33
2019-02-12T11:23:22.377Z,10.23
2019-02-12T11:25:51.686Z,13.00
2019-02-12T11:28:20.857Z,10.50
2019-02-12T11:30:50.306Z,11.80
2019-02-12T11:33:19.587Z,11.90
2019-02-12T11:35:48.704Z,8.67
2019-02-12T11:38:18.008Z,9.70
2019-02-12T11:40:47.155Z,6.70
2019-02-12T11:43:16.295Z,13.83
2019-02-12T11:45:45.463Z,10.83
2019-02-12T11:48:14.565Z,9.27
2019-02-12T11:50:43.874Z,11.00
2019-02-12T11:53:12.981Z,11.73
2019-02-12T11:55:42.168Z,12.53
2019-02-12T11:58:11.485Z,10.90
2019-02-12T12:00:44.736Z,10.70
2019-02-12T12:03:13.884Z,10.90
2019-02-12T12:05:43.085Z,8.90
2019-02-12T12:08:12.190Z,12.17
2019-02-12T12:10:41.547Z,9.43
2019-02-12T12:13:10.669Z,10.23
2019-02-12T12:15:39.839Z,17.13
2019-02-12T12:18:09.182Z,6.43
2019-02-12T12:20:38.265Z,8.73
2019-02-12T12:23:07.524Z,7.27
2019-02-12T12:25:36.806Z,10.00
2019-02-12T12:28:06.042Z,6.53
2019-02-12T12:30:35.180Z,8.90
2019-02-12T12:33:04.458Z,9.63
2019-02-12T12:35:33.759Z,12.53
2019-02-12T12:38:02.946Z,10.20
2019-02-12T12:40:32.362Z,8.13
2019-02-12T12:43:01.427Z,10.10
2019-02-12T12:45:30.657Z,10.93
2019-02-12T12:47:59.957Z,7.50
2019-02-12T12:50:29.259Z,7.57
2019-02-12T12:52:58.343Z,10.47
2019-02-12T12:55:27.430Z,16.63
2019-02-12T12:57:57.341Z,10.30
2019-02-12T13:00:26.948Z,11.60
2019-02-12T13:02:56.175Z,13.20
2019-02-12T13:05:25.308Z,9.00
2019-02-12T13:07:54.520Z,8.57
2019-02-12T13:10:23.858Z,8.23
2019-02-12T13:12:52.932Z,11.70
2019-02-12T13:15:22.231Z,11.87
2019-02-12T13:17:51.424Z,9.77
2019-02-12T13:20:20.670Z,5.63
2019-02-12T13:22:49.746Z,9.50
2019-02-12T13:25:19.049Z,4.87
2019-02-12T13:27:48.313Z,7.80
2019-02-12T13:30:17.537Z,6.10
2019-02-12T13:32:46.750Z,5.67
2019-02-12T13:35:15.845Z,10.20
2019-02-12T13:37:45.233Z,4.43
2019-02-12T13:40:14.300Z,6.03
2019-02-12T13:42:43.470Z,8.10
2019-02-12T13:45:14.017Z,19.10
2019-02-12T13:47:43.489Z,4.80
2019-02-12T13:50:12.611Z,6.80
2019-02-12T13:52:41.786Z,10.77
2019-02-12T13:55:17.008Z,6.30
2019-02-12T13:57:42.919Z,3.50
2019-02-12T14:00:13.320Z,3.70
2019-02-12T14:02:42.405Z,5.97
2019-02-12T14:05:14.238Z,6.00
2019-02-12T14:07:43.709Z,9.83
2019-02-12T14:10:12.883Z,10.23
2019-02-12T14:12:42.107Z,9.33
2019-02-12T14:15:13.121Z,8.83
2019-02-12T14:17:42.662Z,8.43
2019-02-12T14:20:13.147Z,5.20
2019-02-12T14:22:42.229Z,5.70
2019-02-12T14:25:11.591Z,9.63
2019-02-12T14:27:40.685Z,9.00
2019-02-12T14:30:12.582Z,5.70
2019-02-12T14:32:41.681Z,5.53
2019-02-12T14:35:11.897Z,4.63
2019-02-12T14:37:41.167Z,4.53
2019-02-12T14:40:11.363Z,12.87
2019-02-12T14:42:40.474Z,8.07
2019-02-12T14:45:11.668Z,4.30
2019-02-12T14:47:40.810Z,4.80
2019-02-12T14:50:11.093Z,5.30
2019-02-12T14:52:40.278Z,4.87
2019-02-12T14:55:09.583Z,4.97
2019-02-12T14:57:39.969Z,6.70
2019-02-12T15:00:11.913Z,4.47
2019-02-12T15:02:41.125Z,6.90
2019-02-12T15:05:10.323Z,10.93
2019-02-12T15:07:39.523Z,5.97
2019-02-12T15:10:09.873Z,4.10
2019-02-12T15:12:38.971Z,5.03
2019-02-12T15:15:08.641Z,5.80
2019-02-12T15:17:37.725Z,7.23
2019-02-12T15:20:08.008Z,6.30
2019-02-12T15:22:37.071Z,7.63
2019-02-12T15:25:06.939Z,7.13
2019-02-12T15:27:36.166Z,4.30
2019-02-12T15:30:07.030Z,6.53
2019-02-12T15:32:36.088Z,10.50
2019-02-12T15:35:06.068Z,7.97
2019-02-12T15:37:35.119Z,4.30
2019-02-12T15:40:04.931Z,3.53
2019-02-12T15:42:34.469Z,4.33
2019-02-12T15:45:03.848Z,7.83
2019-02-12T15:47:32.896Z,7.27
2019-02-12T15:50:02.162Z,6.20
2019-02-12T15:52:31.398Z,7.33
2019-02-12T15:55:00.628Z,3.83
2019-02-12T15:57:29.897Z,7.33
2019-02-12T15:59:59.167Z,7.43
2019-02-12T16:02:28.438Z,8.70
2019-02-12T16:04:57.707Z,6.90
2019-02-12T16:07:26.972Z,5.97
2019-02-12T16:09:57.010Z,10.77
2019-02-12T16:12:26.799Z,8.40
2019-02-12T16:14:59.226Z,9.03
2019-02-12T16:17:28.368Z,8.50
2019-02-12T16:19:57.920Z,7.60
2019-02-12T16:22:27.038Z,6.93
2019-02-12T16:24:58.440Z,10.23
2019-02-12T16:27:27.847Z,8.27
2019-02-12T16:29:57.553Z,13.93
2019-02-12T16:32:26.893Z,13.20
2019-02-12T16:34:56.038Z,11.17
2019-02-12T16:37:25.323Z,8.00
2019-02-12T16:39:54.645Z,11.30
2019-02-12T16:42:24.181Z,9.00
2019-02-12T16:44:53.944Z,8.10
2019-02-12T16:47:23.238Z,9.97
2019-02-12T16:49:52.740Z,13.30
2019-02-12T16:52:22.057Z,8.70
2019-02-12T16:54:52.020Z,9.90
2019-02-12T16:57:21.684Z,6.10
2019-02-12T16:59:51.441Z,11.83
2019-02-12T17:02:20.560Z,9.63
2019-02-12T17:04:49.675Z,8.30
2019-02-12T17:07:19.594Z,9.73
2019-02-12T17:09:52.266Z,8.87
2019-02-12T17:12:21.345Z,14.87
2019-02-12T17:14:50.616Z,12.03
2019-02-12T17:17:19.738Z,8.40
2019-02-12T17:19:48.996Z,10.83
2019-02-12T17:22:18.284Z,9.30
2019-02-12T17:24:47.396Z,6.00
2019-02-12T17:27:16.816Z,9.33
2019-02-12T17:29:46.798Z,7.40
2019-02-12T17:32:16.026Z,14.73
2019-02-12T17:34:47.384Z,8.77
2019-02-12T17:37:16.633Z,14.93
2019-02-12T17:39:46.520Z,10.13
2019-02-12T17:42:16.222Z,12.47
2019-02-12T17:44:45.755Z,8.63
2019-02-12T17:47:15.055Z,15.60
2019-02-12T17:49:44.490Z,9.00
2019-02-12T17:52:13.887Z,10.50
2019-02-12T17:54:43.031Z,11.20
2019-02-12T17:57:12.274Z,9.13
2019-02-12T17:59:41.407Z,13.87
2019-02-12T18:02:10.462Z,8.10
2019-02-12T18:04:39.801Z,11.90
2019-02-12T18:07:09.111Z,14.93
2019-02-12T18:09:40.606Z,10.60
2019-02-12T18:12:09.704Z,13.90
2019-02-12T18:14:39.666Z,16.30
2019-02-12T18:17:09.017Z,10.00
2019-02-12T18:19:38.096Z,10.90
2019-02-12T18:22:07.393Z,11.07
2019-02-12T18:24:37.229Z,12.80
2019-02-12T18:27:07.423Z,26.70
2019-02-12T18:29:37.100Z,10.27
2019-02-12T18:32:08.334Z,13.77
2019-02-12T18:34:37.451Z,20.70
2019-02-12T18:37:06.989Z,20.43
2019-02-12T18:39:37.890Z,17.70
2019-02-12T18:42:07.580Z,20.77
2019-02-12T18:44:37.056Z,23.37
2019-02-12T18:47:06.370Z,19.23
2019-02-12T18:49:37.758Z,24.00
2019-02-12T18:52:07.636Z,21.70
2019-02-12T18:54:36.886Z,28.07
2019-02-12T18:57:06.350Z,30.63
2019-02-12T18:59:35.605Z,26.40
2019-02-12T19:02:06.277Z,20.30
2019-02-12T19:04:35.633Z,23.73
2019-02-12T19:07:05.228Z,22.77
2019-02-12T19:09:34.495Z,22.40
2019-02-12T19:12:03.910Z,21.90
2019-02-12T19:14:33.316Z,18.73
2019-02-12T19:17:02.808Z,24.50
2019-02-12T19:19:32.185Z,24.70
2019-02-12T19:22:01.556Z,29.53
2019-02-12T19:24:31.662Z,27.70
2019-02-12T19:27:01.065Z,21.77
2019-02-12T19:29:30.652Z,19.87
2019-02-12T19:32:00.026Z,17.83
2019-02-12T19:34:29.756Z,23.43
2019-02-12T19:36:58.911Z,18.43
2019-02-12T19:39:28.415Z,28.63
2019-02-12T19:41:58.028Z,20.80
2019-02-12T19:44:27.476Z,19.80
2019-02-12T19:46:56.794Z,21.20
2019-02-12T19:49:26.054Z,21.60
2019-02-12T19:51:56.258Z,16.77
2019-02-12T19:54:25.784Z,18.43
2019-02-12T19:56:58.339Z,20.30
2019-02-12T19:59:26.829Z,24.80
2019-02-12T20:01:56.505Z,21.43
2019-02-12T20:04:26.598Z,20.20
2019-02-12T20:06:55.973Z,19.63
2019-02-12T20:09:25.558Z,23.00
2019-02-12T20:11:54.711Z,23.67
2019-02-12T20:14:23.973Z,19.80
2019-02-12T20:16:55.618Z,19.10
2019-02-12T20:19:25.144Z,27.83
2019-02-12T20:21:54.288Z,20.53
2019-02-12T20:24:23.543Z,23.50
2019-02-12T20:26:52.811Z,35.00
2019-02-12T20:29:22.120Z,23.70
2019-02-12T20:31:51.235Z,28.03
2019-02-12T20:34:20.445Z,26.07
2019-02-12T20:36:49.771Z,29.50
2019-02-12T20:39:20.094Z,29.67
2019-02-12T20:41:49.405Z,28.47
2019-02-12T20:44:18.699Z,22.17
2019-02-12T20:46:47.804Z,24.93
2019-02-12T20:49:16.946Z,20.93
2019-02-12T20:51:46.228Z,56.67
2019-02-12T20:54:15.424Z,59.67
2019-02-12T20:56:46.408Z,27.97
2019-02-12T20:59:15.624Z,24.93
2019-02-12T21:01:44.797Z,19.50
2019-02-12T21:04:13.963Z,21.10
2019-02-12T21:06:43.254Z,23.90
2019-02-12T21:09:12.859Z,25.50
2019-02-12T21:11:41.979Z,22.87
2019-02-12T21:14:11.354Z,21.13
2019-02-12T21:16:40.620Z,17.33
2019-02-12T21:19:09.692Z,22.00
2019-02-12T21:21:38.937Z,28.93
2019-02-12T21:24:08.517Z,30.33
2019-02-12T21:26:37.964Z,31.90
2019-02-12T21:29:07.146Z,23.33
2019-02-12T21:31:36.459Z,23.27
2019-02-12T21:34:05.666Z,24.40
2019-02-12T21:36:35.575Z,29.03
2019-02-12T21:39:06.378Z,20.67
2019-02-12T21:41:35.580Z,25.50
2019-02-12T21:44:05.269Z,25.83
2019-02-12T21:46:34.464Z,19.73
2019-02-12T21:49:03.956Z,20.27
2019-02-12T21:51:33.117Z,28.43
2019-02-12T21:54:04.475Z,25.20
2019-02-12T21:56:33.761Z,21.57
2019-02-12T21:59:04.705Z,17.70
2019-02-12T22:01:33.941Z,21.40
2019-02-12T22:04:03.061Z,20.30
2019-02-12T22:06:32.333Z,20.70
2019-02-12T22:09:01.862Z,20.73
2019-02-12T22:11:31.024Z,21.40
2019-02-12T22:14:00.114Z,20.33
2019-02-12T22:16:29.231Z,23.63
2019-02-12T22:18:58.379Z,20.60
2019-02-12T22:21:27.545Z,23.10
2019-02-12T22:23:56.889Z,24.27
2019-02-12T22:26:26.063Z,20.80
2019-02-12T22:28:55.248Z,20.50
2019-02-12T22:31:24.588Z,17.63
2019-02-12T22:33:53.705Z,19.30
2019-02-12T22:36:22.859Z,17.30
2019-02-12T22:38:52.199Z,22.47
2019-02-12T22:41:21.448Z,21.50
2019-02-12T22:43:50.770Z,20.80
2019-02-12T22:46:19.926Z,24.00
2019-02-12T22:48:49.058Z,17.77
2019-02-12T22:51:18.236Z,27.80
2019-02-12T22:53:47.511Z,19.83
2019-02-12T22:56:16.762Z,18.97
2019-02-12T22:58:45.880Z,22.43
2019-02-12T23:01:15.449Z,19.13
2019-02-12T23:03:44.544Z,20.43
2019-02-12T23:06:13.686Z,23.30
2019-02-12T23:08:42.989Z,17.10
2019-02-12T23:11:12.199Z,17.57
2019-02-12T23:13:41.314Z,23.63
2019-02-12T23:16:11.792Z,22.30
2019-02-12T23:18:40.857Z,19.67
2019-02-12T23:21:13.921Z,20.43
2019-02-12T23:23:43.024Z,22.80
2019-02-12T23:26:12.347Z,18.67
2019-02-12T23:28:41.405Z,29.40
2019-02-12T23:31:10.567Z,22.00
2019-02-12T23:33:39.920Z,14.90
2019-02-12T23:36:09.081Z,17.90
2019-02-12T23:38:38.310Z,18.93
2019-02-12T23:41:07.695Z,19.50
2019-02-12T23:43:36.915Z,19.20
2019-02-12T23:46:05.992Z,18.73
2019-02-12T23:48:35.358Z,22.03
2019-02-12T23:51:04.655Z,16.13
2019-02-12T23:53:33.763Z,17.20
2019-02-12T23:56:02.904Z,19.13
2019-02-12T23:58:32.381Z,19.60
